createdAt,value
2018-10-03T00:03:15.444Z,14.80
2018-10-03T00:07:17.764Z,14.90
2018-10-03T00:11:20.057Z,14.80
2018-10-03T00:15:22.389Z,15.70
2018-10-03T00:19:24.819Z,14.60
2018-10-03T00:23:27.085Z,14.80
2018-10-03T00:27:29.381Z,15.10
2018-10-03T00:31:31.678Z,15.80
2018-10-03T00:35:33.959Z,15.30
2018-10-03T00:39:36.249Z,15.60
2018-10-03T00:43:38.503Z,15.70
2018-10-03T00:47:40.807Z,16.20
2018-10-03T00:51:43.129Z,15.40
2018-10-03T00:55:45.393Z,15.20
2018-10-03T00:59:47.688Z,15.70
2018-10-03T01:03:49.996Z,15.30
2018-10-03T01:07:52.447Z,15.30
2018-10-03T01:11:54.828Z,15.50
2018-10-03T01:15:57.154Z,15.40
2018-10-03T01:20:01.434Z,15.80
2018-10-03T01:24:05.513Z,14.90
2018-10-03T01:28:08.893Z,14.90
2018-10-03T01:32:21.754Z,14.50
2018-10-03T01:36:26.156Z,13.80
2018-10-03T01:40:30.069Z,14.70
2018-10-03T01:44:33.548Z,14.10
2018-10-03T01:48:38.033Z,14.80
2018-10-03T01:52:40.703Z,14.20
2018-10-03T01:56:44.907Z,15.10
2018-10-03T02:00:47.204Z,14.80
2018-10-03T02:04:49.486Z,15.80
2018-10-03T02:08:51.891Z,16.30
2018-10-03T02:12:54.238Z,15.50
2018-10-03T02:18:26.028Z,16.10
2018-10-03T02:22:28.464Z,15.00
2018-10-03T02:26:30.862Z,15.30
2018-10-03T02:30:33.152Z,16.10
2018-10-03T02:34:35.452Z,16.30
2018-10-03T02:38:37.905Z,15.80
2018-10-03T02:42:40.241Z,14.70
2018-10-03T02:46:42.561Z,15.20
2018-10-03T02:50:44.866Z,15.40
2018-10-03T02:54:47.205Z,15.30
2018-10-03T02:58:49.517Z,15.40
2018-10-03T03:02:51.800Z,16.40
2018-10-03T03:06:54.126Z,16.40
2018-10-03T03:10:56.552Z,15.90
2018-10-03T03:14:58.930Z,17.00
2018-10-03T03:19:01.266Z,15.90
2018-10-03T03:23:03.566Z,15.20
2018-10-03T03:27:05.879Z,15.90
2018-10-03T03:31:08.126Z,16.00
2018-10-03T03:35:10.421Z,15.60
2018-10-03T03:39:12.718Z,15.90
2018-10-03T03:43:14.996Z,16.40
2018-10-03T03:47:17.291Z,16.60
2018-10-03T03:51:19.590Z,16.10
2018-10-03T03:55:21.879Z,16.10
2018-10-03T04:03:37.556Z,15.50
2018-10-03T04:07:39.893Z,15.90
2018-10-03T04:11:42.246Z,15.70
2018-10-03T04:15:44.561Z,15.10
2018-10-03T04:19:46.829Z,15.50
2018-10-03T04:23:49.118Z,15.00
2018-10-03T04:27:51.506Z,14.70
2018-10-03T04:31:53.797Z,15.10
2018-10-03T04:35:56.150Z,14.80
2018-10-03T04:39:58.476Z,15.10
2018-10-03T04:44:00.821Z,14.70
2018-10-03T04:48:03.155Z,14.60
2018-10-03T04:52:05.571Z,15.20
2018-10-03T04:56:07.882Z,14.10
2018-10-03T05:00:10.254Z,14.70
2018-10-03T05:04:12.624Z,15.50
2018-10-03T05:08:15.039Z,15.60
2018-10-03T05:12:17.375Z,15.30
2018-10-03T05:16:19.713Z,14.60
2018-10-03T05:20:22.066Z,14.30
2018-10-03T05:24:24.351Z,15.20
2018-10-03T05:28:26.636Z,14.90
2018-10-03T05:32:28.937Z,14.10
2018-10-03T05:36:31.276Z,14.50
2018-10-03T05:40:33.585Z,14.60
2018-10-03T05:44:35.860Z,14.40
2018-10-03T05:48:38.294Z,14.40
2018-10-03T05:52:40.611Z,14.70
2018-10-03T05:56:42.937Z,15.30
2018-10-03T06:00:45.266Z,15.50
2018-10-03T06:04:47.594Z,15.40
2018-10-03T06:08:49.896Z,15.50
2018-10-03T06:12:52.225Z,15.90
2018-10-03T06:16:54.547Z,15.30
2018-10-03T06:20:56.934Z,15.30
2018-10-03T06:24:59.256Z,15.40
2018-10-03T06:29:01.664Z,15.80
2018-10-03T06:33:03.984Z,15.20
2018-10-03T06:37:06.482Z,15.60
2018-10-03T06:41:08.891Z,15.90
2018-10-03T06:45:11.218Z,16.60
2018-10-03T06:49:13.574Z,16.10
2018-10-03T06:53:15.952Z,16.30
2018-10-03T06:57:18.270Z,16.80
2018-10-03T07:01:20.591Z,16.70
2018-10-03T07:05:22.934Z,16.40
2018-10-03T07:09:25.303Z,16.60
2018-10-03T07:13:27.670Z,16.20
2018-10-03T07:17:29.990Z,15.80
2018-10-03T07:21:32.345Z,15.70
2018-10-03T07:25:34.660Z,15.70
2018-10-03T07:29:37.038Z,15.60
2018-10-03T07:33:39.378Z,15.70
2018-10-03T07:37:41.724Z,15.30
2018-10-03T07:41:44.046Z,13.60
2018-10-03T07:45:46.423Z,13.90
2018-10-03T07:49:48.758Z,14.10
2018-10-03T07:53:51.085Z,15.20
2018-10-03T07:57:53.381Z,15.00
2018-10-03T08:01:56.648Z,15.30
2018-10-03T08:05:59.015Z,15.50
2018-10-03T08:10:01.451Z,14.80
2018-10-03T08:14:03.731Z,15.00
2018-10-03T08:18:06.039Z,15.60
2018-10-03T08:22:08.373Z,14.50
2018-10-03T08:26:10.733Z,15.50
2018-10-03T08:30:13.070Z,14.90
2018-10-03T08:34:15.584Z,14.90
2018-10-03T08:38:17.948Z,15.10
2018-10-03T08:42:20.355Z,15.10
2018-10-03T08:46:22.655Z,16.10
2018-10-03T08:50:24.985Z,15.90
2018-10-03T08:54:27.273Z,16.10
2018-10-03T08:58:29.851Z,16.30
2018-10-03T09:02:31.970Z,16.70
2018-10-03T09:06:34.309Z,16.40
2018-10-03T09:10:36.809Z,16.40
2018-10-03T09:14:39.084Z,16.70
2018-10-03T09:18:41.378Z,16.10
2018-10-03T09:22:43.853Z,17.20
2018-10-03T09:26:46.203Z,16.90
2018-10-03T09:30:48.514Z,16.40
2018-10-03T09:34:50.779Z,15.90
2018-10-03T09:38:53.099Z,16.00
2018-10-03T09:42:55.463Z,14.10
2018-10-03T09:46:57.773Z,15.40
2018-10-03T09:51:00.040Z,16.50
2018-10-03T09:55:02.359Z,16.30
2018-10-03T10:00:40.203Z,16.60
2018-10-03T10:04:42.623Z,16.80
2018-10-03T10:08:45.142Z,17.20
2018-10-03T10:12:47.850Z,16.40
2018-10-03T10:16:50.166Z,17.30
2018-10-03T10:20:52.511Z,15.90
2018-10-03T10:24:54.843Z,16.00
2018-10-03T10:28:57.693Z,16.20
2018-10-03T10:33:00.179Z,16.70
2018-10-03T10:37:02.463Z,16.60
2018-10-03T10:41:04.857Z,16.30
2018-10-03T10:45:07.257Z,17.00
2018-10-03T10:49:11.117Z,16.80
2018-10-03T10:53:13.455Z,17.20
2018-10-03T10:57:15.734Z,17.10
2018-10-03T11:01:18.089Z,16.20
2018-10-03T11:05:20.435Z,16.40
2018-10-03T11:09:22.781Z,15.40
2018-10-03T11:13:25.091Z,15.70
2018-10-03T11:17:27.467Z,15.20
2018-10-03T11:21:29.783Z,17.30
2018-10-03T11:25:32.103Z,16.60
2018-10-03T11:29:34.429Z,17.00
2018-10-03T11:33:36.728Z,17.90
2018-10-03T11:37:39.048Z,17.80
2018-10-03T11:41:41.721Z,17.40
2018-10-03T11:45:44.127Z,17.60
2018-10-03T11:49:46.467Z,16.50
2018-10-03T11:53:48.784Z,17.70
2018-10-03T11:57:51.088Z,17.30
2018-10-03T12:01:53.428Z,17.80
2018-10-03T12:05:55.842Z,17.40
2018-10-03T12:09:58.132Z,18.10
2018-10-03T12:14:00.456Z,17.10
2018-10-03T12:18:02.841Z,18.40
2018-10-03T12:22:05.327Z,17.90
2018-10-03T12:26:08.377Z,15.80
2018-10-03T12:30:10.737Z,16.30
2018-10-03T12:34:14.004Z,16.00
2018-10-03T12:38:16.296Z,17.70
2018-10-03T12:42:18.584Z,17.70
2018-10-03T12:46:20.922Z,18.70
2018-10-03T12:50:23.293Z,18.00
2018-10-03T12:54:25.697Z,17.60
2018-10-03T12:58:28.018Z,19.00
2018-10-03T13:02:30.506Z,18.30
2018-10-03T13:08:02.326Z,17.90
2018-10-03T13:12:05.377Z,18.90
2018-10-03T13:16:07.848Z,19.40
2018-10-03T13:20:10.232Z,20.00
2018-10-03T13:24:12.559Z,19.20
2018-10-03T13:28:14.846Z,18.10
2018-10-03T13:32:17.667Z,18.50
2018-10-03T13:36:21.042Z,18.00
2018-10-03T13:40:23.608Z,18.00
2018-10-03T13:44:25.905Z,18.60
2018-10-03T13:48:28.222Z,18.20
2018-10-03T13:52:30.521Z,17.80
2018-10-03T13:56:32.896Z,18.30
2018-10-03T14:00:35.593Z,19.20
2018-10-03T14:04:38.026Z,18.40
2018-10-03T14:08:41.193Z,19.20
2018-10-03T14:12:43.569Z,19.40
2018-10-03T14:16:45.937Z,18.80
2018-10-03T14:20:48.317Z,18.50
2018-10-03T14:24:50.687Z,18.90
2018-10-03T14:28:53.177Z,18.30
2018-10-03T14:32:55.590Z,17.60
2018-10-03T14:36:57.944Z,17.90
2018-10-03T14:41:00.247Z,17.80
2018-10-03T14:45:02.653Z,18.00
2018-10-03T14:49:05.245Z,17.50
2018-10-03T14:53:07.627Z,17.60
2018-10-03T14:57:09.955Z,18.60
2018-10-03T15:01:12.265Z,18.10
2018-10-03T15:05:14.619Z,18.00
2018-10-03T15:09:17.061Z,17.90
2018-10-03T15:13:19.379Z,18.40
2018-10-03T15:17:21.766Z,19.10
2018-10-03T15:21:24.133Z,18.80
2018-10-03T15:25:26.487Z,18.20
2018-10-03T15:29:28.822Z,18.60
2018-10-03T15:33:31.148Z,17.70
2018-10-03T15:37:33.543Z,17.90
2018-10-03T15:41:35.932Z,17.30
2018-10-03T15:45:38.250Z,17.70
2018-10-03T15:49:40.572Z,18.10
2018-10-03T15:53:42.880Z,17.00
2018-10-03T15:57:45.220Z,17.20
2018-10-03T16:01:47.520Z,17.60
2018-10-03T16:05:49.830Z,17.50
2018-10-03T16:09:52.155Z,17.10
2018-10-03T16:13:54.459Z,17.50
2018-10-03T16:17:56.830Z,17.50
2018-10-03T16:21:59.176Z,17.90
2018-10-03T16:26:01.632Z,17.70
2018-10-03T16:30:04.037Z,17.60
2018-10-03T16:34:06.382Z,18.00
2018-10-03T16:38:08.941Z,17.40
2018-10-03T16:42:11.300Z,17.20
2018-10-03T16:46:13.646Z,17.60
2018-10-03T16:50:15.995Z,17.80
2018-10-03T16:54:18.360Z,18.20
2018-10-03T16:58:20.632Z,18.10
2018-10-03T17:02:22.990Z,18.00
2018-10-03T17:06:25.325Z,17.90
2018-10-03T17:10:27.711Z,17.90
2018-10-03T17:14:33.220Z,17.80
2018-10-03T17:18:35.600Z,17.70
2018-10-03T17:22:37.962Z,17.40
2018-10-03T17:26:41.092Z,17.30
2018-10-03T17:30:43.418Z,17.10
2018-10-03T17:34:45.819Z,16.60
2018-10-03T17:38:48.178Z,16.60
2018-10-03T17:42:50.518Z,16.60
2018-10-03T17:46:54.429Z,16.30
2018-10-03T17:50:56.876Z,16.30
2018-10-03T17:54:59.848Z,16.30
2018-10-03T17:59:03.283Z,16.00
2018-10-03T18:03:10.266Z,16.10
2018-10-03T18:07:17.209Z,16.10
2018-10-03T18:11:23.719Z,16.20
2018-10-03T18:15:26.265Z,16.30
2018-10-03T18:19:28.606Z,15.90
2018-10-03T18:23:30.966Z,15.70
2018-10-03T18:27:34.324Z,15.70
2018-10-03T18:31:36.764Z,16.20
2018-10-03T18:35:39.200Z,15.70
2018-10-03T18:39:42.606Z,15.80
2018-10-03T18:43:46.093Z,15.70
2018-10-03T18:47:49.435Z,15.30
2018-10-03T18:51:53.202Z,15.40
2018-10-03T18:55:56.091Z,14.80
2018-10-03T18:59:58.924Z,14.40
2018-10-03T19:04:01.714Z,14.70
2018-10-03T19:08:13.970Z,14.70
2018-10-03T19:12:16.774Z,15.20
2018-10-03T19:16:19.300Z,14.90
2018-10-03T19:20:21.983Z,14.90
2018-10-03T19:24:24.645Z,14.90
2018-10-03T19:28:27.324Z,15.00
2018-10-03T19:32:30.241Z,14.70
2018-10-03T19:36:32.969Z,14.50
2018-10-03T19:40:35.501Z,14.40
2018-10-03T19:44:38.815Z,14.20
2018-10-03T19:48:42.108Z,14.00
2018-10-03T19:52:44.455Z,13.50
2018-10-03T19:56:47.345Z,13.70
2018-10-03T20:00:51.114Z,14.10
2018-10-03T20:04:53.668Z,14.00
2018-10-03T20:08:56.595Z,13.80
2018-10-03T20:12:59.173Z,13.40
2018-10-03T20:17:01.614Z,13.20
2018-10-03T20:21:04.091Z,12.50
2018-10-03T20:25:06.642Z,12.90
2018-10-03T20:29:08.994Z,13.20
2018-10-03T20:33:11.385Z,13.30
2018-10-03T20:37:13.789Z,13.40
2018-10-03T20:41:16.249Z,13.40
2018-10-03T20:45:18.589Z,13.60
2018-10-03T20:49:20.970Z,14.00
2018-10-03T20:53:23.398Z,13.60
2018-10-03T20:57:25.750Z,13.50
2018-10-03T21:01:28.083Z,13.40
2018-10-03T21:05:30.460Z,13.20
2018-10-03T21:09:32.803Z,12.70
2018-10-03T21:13:35.210Z,12.60
2018-10-03T21:17:37.598Z,12.60
2018-10-03T21:21:39.879Z,12.90
2018-10-03T21:25:42.728Z,13.00
2018-10-03T21:29:45.035Z,12.80
2018-10-03T21:33:47.445Z,12.80
2018-10-03T21:37:49.738Z,12.80
2018-10-03T21:41:52.089Z,13.00
2018-10-03T21:45:54.462Z,12.90
2018-10-03T21:49:56.822Z,12.70
2018-10-03T21:53:59.097Z,12.50
2018-10-03T21:58:01.435Z,12.30
2018-10-03T22:02:03.903Z,12.40
2018-10-03T22:06:06.212Z,12.40
2018-10-03T22:10:08.557Z,12.30
2018-10-03T22:14:10.931Z,12.30
2018-10-03T22:18:13.229Z,12.00
2018-10-03T22:22:15.552Z,11.70
2018-10-03T22:26:17.866Z,11.90
2018-10-03T22:30:20.297Z,11.80
2018-10-03T22:34:22.804Z,11.70
2018-10-03T22:38:25.157Z,11.70
2018-10-03T22:42:27.528Z,11.80
2018-10-03T22:46:29.912Z,11.70
2018-10-03T22:50:33.397Z,11.90
2018-10-03T22:54:36.646Z,11.80
2018-10-03T22:58:38.939Z,11.80
2018-10-03T23:02:41.284Z,11.00
2018-10-03T23:06:43.559Z,11.50
2018-10-03T23:10:45.888Z,11.70
2018-10-03T23:14:48.206Z,11.70
2018-10-03T23:18:50.482Z,11.70
2018-10-03T23:22:52.806Z,11.50
2018-10-03T23:26:55.141Z,11.50
2018-10-03T23:30:57.448Z,11.40
2018-10-03T23:34:59.682Z,11.30
2018-10-03T23:39:01.969Z,11.20
2018-10-03T23:43:04.288Z,11.20
2018-10-03T23:47:06.648Z,11.20
2018-10-03T23:51:08.993Z,11.10
2018-10-03T23:55:11.438Z,10.90
2018-10-03T23:59:13.711Z,11.00
